createdAt,value
2016-05-12T10:59:16.036Z,96822
2016-05-12T10:59:30.504Z,96812
2016-05-12T10:59:44.567Z,96814
2016-05-12T10:59:58.444Z,96819
2016-05-12T11:00:13.209Z,96818
2016-05-12T11:00:27.897Z,96805
2016-05-12T11:00:43.475Z,96826
2016-05-12T11:00:58.775Z,96818
2016-05-12T11:01:19.681Z,96819
2016-05-12T11:01:36.962Z,96805
2016-05-12T11:01:52.560Z,96817
2016-05-12T11:02:08.841Z,96806
2016-05-12T11:02:24.685Z,96807
2016-05-12T11:02:39.545Z,96813
2016-05-12T11:02:53.905Z,96816
2016-05-12T11:03:08.639Z,96822
2016-05-12T11:03:22.452Z,96820
2016-05-12T11:03:36.608Z,96815
2016-05-12T11:03:50.955Z,96809
2016-05-12T11:04:04.877Z,96810
2016-05-12T11:04:19.689Z,96810
2016-05-12T11:04:33.783Z,96813
2016-05-12T11:04:48.861Z,96824
2016-05-12T11:05:03.255Z,96818
2016-05-12T11:05:17.708Z,96798
2016-05-12T11:05:31.583Z,96810
2016-05-12T11:05:45.333Z,96810
2016-05-12T11:05:59.086Z,96804
2016-05-12T11:06:12.820Z,96804
2016-05-12T11:06:27.383Z,96809
2016-05-12T11:06:44.851Z,96812
2016-05-12T11:06:58.573Z,96812
2016-05-12T11:07:12.261Z,96806
2016-05-12T11:07:25.964Z,96818
2016-05-12T11:07:40.448Z,96807
2016-05-12T11:07:55.576Z,96801
2016-05-12T11:08:10.686Z,96807
2016-05-12T11:08:24.498Z,96804
2016-05-12T11:08:38.654Z,96812
2016-05-12T11:08:52.108Z,96815
2016-05-12T11:09:06.062Z,96807
2016-05-12T11:09:19.749Z,96812
2016-05-12T11:09:34.218Z,96806
2016-05-12T11:09:49.202Z,96812
2016-05-12T11:10:03.378Z,96812
2016-05-12T11:10:17.050Z,96811
2016-05-12T11:10:36.269Z,96803
2016-05-12T11:10:52.037Z,96809
2016-05-12T11:11:06.975Z,96817
2016-05-12T11:11:22.209Z,96803
2016-05-12T11:11:37.444Z,96812
2016-05-12T11:11:51.430Z,96820
2016-05-12T11:12:06.055Z,96803
2016-05-12T11:12:19.617Z,96806
2016-05-12T11:12:33.930Z,96806
2016-05-12T11:12:48.211Z,96820
2016-05-12T11:13:02.308Z,96811
2016-05-12T11:13:16.433Z,96812
2016-05-12T11:13:30.105Z,96815
2016-05-12T11:13:44.167Z,96818
2016-05-12T11:13:59.935Z,96815
2016-05-12T11:14:13.716Z,96798
2016-05-12T11:14:27.779Z,96815
2016-05-12T11:14:41.451Z,96804
2016-05-12T11:14:59.829Z,96818
2016-05-12T11:15:13.579Z,96815
2016-05-12T11:15:28.422Z,96818
2016-05-12T11:15:48.672Z,96821
2016-05-12T11:16:05.316Z,96821
2016-05-12T11:16:20.253Z,96807
2016-05-12T11:50:34.267Z,96792
2016-05-12T11:50:48.064Z,96789
2016-05-12T11:51:02.191Z,96789
2016-05-12T11:51:18.004Z,96786
2016-05-12T11:51:31.988Z,96789
2016-05-12T11:51:50.113Z,96794
2016-05-12T11:52:05.037Z,96786
2016-05-12T11:52:18.834Z,96789
2016-05-12T11:52:32.506Z,96786
2016-05-12T11:52:46.803Z,96788
2016-05-12T11:53:00.868Z,96792
2016-05-12T11:53:15.181Z,96789
2016-05-12T11:53:34.118Z,96787
2016-05-12T11:53:48.556Z,96784
2016-05-12T11:54:02.387Z,96787
2016-05-12T11:54:16.246Z,96791
2016-05-12T11:54:30.043Z,96788
2016-05-12T11:54:44.668Z,96786
2016-05-12T11:54:59.655Z,96792
2016-05-12T11:55:13.437Z,96786
2016-05-12T11:55:27.437Z,96803
2016-05-12T11:55:41.077Z,96788
2016-05-12T11:55:56.001Z,96783
2016-05-12T11:56:09.939Z,96786
2016-05-12T11:56:23.845Z,96800
2016-05-12T11:56:37.610Z,96788
2016-05-12T11:56:52.082Z,96785
2016-05-12T11:57:05.692Z,96791
2016-05-12T11:57:20.238Z,96782
2016-05-12T11:57:34.098Z,96783
2016-05-12T11:57:49.582Z,96791
2016-05-12T11:58:04.616Z,96786
2016-05-12T11:58:18.679Z,96792
2016-05-12T11:58:32.757Z,96786
2016-05-12T11:58:46.382Z,96797
2016-05-12T11:59:00.759Z,96783
2016-05-12T11:59:16.103Z,96783
2016-05-12T11:59:30.072Z,96791
2016-05-12T11:59:43.728Z,96788
2016-05-12T11:59:57.496Z,96777
2016-05-12T12:00:11.168Z,96783
2016-05-12T12:00:25.465Z,96788
2016-05-12T12:00:40.778Z,96791
2016-05-12T12:00:54.406Z,96791
2016-05-12T12:01:08.046Z,96783
2016-05-12T12:01:22.656Z,96780
2016-05-12T12:01:41.078Z,96777
2016-05-12T12:01:56.018Z,96786
2016-05-12T12:02:11.940Z,96778
2016-05-12T12:02:27.346Z,96789
2016-05-12T12:02:41.752Z,96786
2016-05-12T12:02:57.037Z,96789
2016-05-12T12:03:13.177Z,96783
2016-05-12T12:03:28.068Z,96792
2016-05-12T12:03:42.834Z,96786
2016-05-12T12:03:57.867Z,96778
2016-05-12T12:04:12.695Z,96795
2016-05-12T12:04:26.757Z,96787
2016-05-12T12:04:42.351Z,96790
2016-05-12T12:04:57.900Z,96798
2016-05-12T12:05:11.869Z,96787
2016-05-12T12:05:26.119Z,96795
2016-05-12T12:05:40.978Z,96790
2016-05-12T12:05:54.841Z,96790
2016-05-12T12:06:10.309Z,96778
2016-05-12T12:06:23.950Z,96790
2016-05-12T12:06:38.247Z,96787
2016-05-12T12:06:52.375Z,96787
2016-05-12T12:07:06.109Z,96784
2016-05-12T12:07:20.265Z,96793
2016-05-12T12:07:34.547Z,96787
